sensor_id;sensor_type;location;lat;lon;timestamp;P1;durP1;ratioP1;P2;durP2;ratioP2
69280;SDS011;56392;51.082;17.080;2023-07-13T00:02:53;9.18;;;3.92;;
69280;SDS011;56392;51.082;17.080;2023-07-13T00:08:16;9.27;;;4.17;;
69280;SDS011;56392;51.082;17.080;2023-07-13T00:13:41;9.73;;;4.03;;
69280;SDS011;56392;51.082;17.080;2023-07-13T00:19:04;10.73;;;4.25;;
69280;SDS011;56392;51.082;17.080;2023-07-13T00:24:28;13.47;;;4.67;;
69280;SDS011;56392;51.082;17.080;2023-07-13T00:29:52;13.10;;;4.22;;
69280;SDS011;56392;51.082;17.080;2023-07-13T00:35:16;11.13;;;4.25;;
69280;SDS011;56392;51.082;17.080;2023-07-13T00:40:39;8.60;;;4.10;;
69280;SDS011;56392;51.082;17.080;2023-07-13T00:46:12;10.87;;;4.90;;
69280;SDS011;56392;51.082;17.080;2023-07-13T00:51:39;11.50;;;4.63;;
69280;SDS011;56392;51.082;17.080;2023-07-13T00:57:05;13.18;;;5.05;;
69280;SDS011;56392;51.082;17.080;2023-07-13T01:02:32;14.17;;;4.90;;
69280;SDS011;56392;51.082;17.080;2023-07-13T01:07:56;18.25;;;5.50;;
69280;SDS011;56392;51.082;17.080;2023-07-13T01:13:21;14.10;;;5.57;;
69280;SDS011;56392;51.082;17.080;2023-07-13T01:18:46;13.30;;;5.17;;
69280;SDS011;56392;51.082;17.080;2023-07-13T01:24:11;11.18;;;5.63;;
69280;SDS011;56392;51.082;17.080;2023-07-13T01:29:35;12.57;;;5.13;;
69280;SDS011;56392;51.082;17.080;2023-07-13T01:35:03;12.33;;;5.77;;
69280;SDS011;56392;51.082;17.080;2023-07-13T01:40:29;14.63;;;6.13;;
69280;SDS011;56392;51.082;17.080;2023-07-13T01:45:52;14.25;;;5.30;;
69280;SDS011;56392;51.082;17.080;2023-07-13T01:51:15;10.52;;;5.07;;
69280;SDS011;56392;51.082;17.080;2023-07-13T01:56:40;11.60;;;4.57;;
69280;SDS011;56392;51.082;17.080;2023-07-13T02:02:03;10.40;;;5.20;;
69280;SDS011;56392;51.082;17.080;2023-07-13T02:07:28;13.63;;;5.32;;
69280;SDS011;56392;51.082;17.080;2023-07-13T02:12:52;11.77;;;5.13;;
69280;SDS011;56392;51.082;17.080;2023-07-13T02:18:15;12.18;;;5.22;;
69280;SDS011;56392;51.082;17.080;2023-07-13T02:23:39;13.68;;;5.10;;
69280;SDS011;56392;51.082;17.080;2023-07-13T02:29:03;9.83;;;4.30;;
69280;SDS011;56392;51.082;17.080;2023-07-13T02:34:26;9.90;;;4.87;;
69280;SDS011;56392;51.082;17.080;2023-07-13T02:39:50;11.63;;;5.43;;
69280;SDS011;56392;51.082;17.080;2023-07-13T02:45:15;16.00;;;5.55;;
69280;SDS011;56392;51.082;17.080;2023-07-13T02:50:39;18.47;;;5.60;;
69280;SDS011;56392;51.082;17.080;2023-07-13T02:56:02;12.52;;;5.40;;
69280;SDS011;56392;51.082;17.080;2023-07-13T03:01:27;11.52;;;4.95;;
69280;SDS011;56392;51.082;17.080;2023-07-13T03:06:50;8.33;;;3.97;;
69280;SDS011;56392;51.082;17.080;2023-07-13T03:12:13;11.70;;;5.10;;
69280;SDS011;56392;51.082;17.080;2023-07-13T03:17:37;11.73;;;5.10;;
69280;SDS011;56392;51.082;17.080;2023-07-13T03:23:00;11.47;;;4.60;;
69280;SDS011;56392;51.082;17.080;2023-07-13T03:28:24;14.47;;;5.23;;
69280;SDS011;56392;51.082;17.080;2023-07-13T03:33:48;10.15;;;5.15;;
69280;SDS011;56392;51.082;17.080;2023-07-13T03:39:11;10.98;;;5.18;;
69280;SDS011;56392;51.082;17.080;2023-07-13T03:44:35;10.80;;;5.20;;
69280;SDS011;56392;51.082;17.080;2023-07-13T03:49:59;14.10;;;5.57;;
69280;SDS011;56392;51.082;17.080;2023-07-13T03:55:22;12.20;;;5.53;;
69280;SDS011;56392;51.082;17.080;2023-07-13T04:00:46;11.03;;;5.17;;
69280;SDS011;56392;51.082;17.080;2023-07-13T04:06:14;15.90;;;5.45;;
69280;SDS011;56392;51.082;17.080;2023-07-13T04:11:42;11.13;;;5.30;;
69280;SDS011;56392;51.082;17.080;2023-07-13T04:17:05;11.13;;;5.03;;
69280;SDS011;56392;51.082;17.080;2023-07-13T04:22:30;12.90;;;5.67;;
69280;SDS011;56392;51.082;17.080;2023-07-13T04:27:53;10.95;;;5.82;;
69280;SDS011;56392;51.082;17.080;2023-07-13T04:33:17;12.57;;;5.30;;
69280;SDS011;56392;51.082;17.080;2023-07-13T04:38:45;9.37;;;3.90;;
69280;SDS011;56392;51.082;17.080;2023-07-13T04:44:08;18.52;;;4.00;;
69280;SDS011;56392;51.082;17.080;2023-07-13T04:49:31;13.63;;;4.22;;
69280;SDS011;56392;51.082;17.080;2023-07-13T04:54:55;12.17;;;3.90;;
69280;SDS011;56392;51.082;17.080;2023-07-13T05:00:21;9.65;;;3.50;;
69280;SDS011;56392;51.082;17.080;2023-07-13T05:05:53;7.53;;;3.13;;
69280;SDS011;56392;51.082;17.080;2023-07-13T05:11:19;9.60;;;3.60;;
69280;SDS011;56392;51.082;17.080;2023-07-13T05:16:43;9.03;;;3.10;;
69280;SDS011;56392;51.082;17.080;2023-07-13T05:22:06;7.78;;;2.72;;
69280;SDS011;56392;51.082;17.080;2023-07-13T05:27:31;10.15;;;2.95;;
69280;SDS011;56392;51.082;17.080;2023-07-13T05:32:54;10.10;;;3.20;;
69280;SDS011;56392;51.082;17.080;2023-07-13T05:38:17;6.20;;;2.90;;
69280;SDS011;56392;51.082;17.080;2023-07-13T05:43:42;11.93;;;3.35;;
69280;SDS011;56392;51.082;17.080;2023-07-13T05:49:05;7.60;;;2.57;;
69280;SDS011;56392;51.082;17.080;2023-07-13T05:54:28;9.35;;;3.05;;
69280;SDS011;56392;51.082;17.080;2023-07-13T05:59:55;8.27;;;3.38;;
69280;SDS011;56392;51.082;17.080;2023-07-13T06:05:18;7.93;;;3.10;;
69280;SDS011;56392;51.082;17.080;2023-07-13T06:10:41;9.53;;;3.10;;
69280;SDS011;56392;51.082;17.080;2023-07-13T06:16:06;7.85;;;3.20;;
69280;SDS011;56392;51.082;17.080;2023-07-13T06:21:30;6.43;;;3.00;;
69280;SDS011;56392;51.082;17.080;2023-07-13T06:26:53;9.00;;;2.80;;
69280;SDS011;56392;51.082;17.080;2023-07-13T06:32:18;7.88;;;2.60;;
69280;SDS011;56392;51.082;17.080;2023-07-13T06:37:41;8.13;;;2.40;;
69280;SDS011;56392;51.082;17.080;2023-07-13T06:43:04;7.87;;;2.57;;
69280;SDS011;56392;51.082;17.080;2023-07-13T06:48:28;6.43;;;2.15;;
69280;SDS011;56392;51.082;17.080;2023-07-13T06:53:51;6.88;;;2.50;;
69280;SDS011;56392;51.082;17.080;2023-07-13T06:59:15;6.77;;;2.77;;
69280;SDS011;56392;51.082;17.080;2023-07-13T07:04:40;7.33;;;2.90;;
69280;SDS011;56392;51.082;17.080;2023-07-13T07:10:03;6.97;;;3.05;;
69280;SDS011;56392;51.082;17.080;2023-07-13T07:15:28;8.32;;;3.33;;
69280;SDS011;56392;51.082;17.080;2023-07-13T07:20:53;8.70;;;3.90;;
69280;SDS011;56392;51.082;17.080;2023-07-13T07:26:16;12.57;;;4.50;;
69280;SDS011;56392;51.082;17.080;2023-07-13T07:31:39;12.82;;;4.40;;
69280;SDS011;56392;51.082;17.080;2023-07-13T07:37:04;10.40;;;4.60;;
69280;SDS011;56392;51.082;17.080;2023-07-13T07:42:27;16.80;;;4.75;;
69280;SDS011;56392;51.082;17.080;2023-07-13T07:47:50;13.20;;;4.80;;
69280;SDS011;56392;51.082;17.080;2023-07-13T07:53:17;21.77;;;5.77;;
69280;SDS011;56392;51.082;17.080;2023-07-13T07:58:42;9.77;;;5.03;;
69280;SDS011;56392;51.082;17.080;2023-07-13T08:04:06;13.15;;;5.55;;
69280;SDS011;56392;51.082;17.080;2023-07-13T08:09:30;11.35;;;5.03;;
69280;SDS011;56392;51.082;17.080;2023-07-13T08:14:53;8.87;;;4.77;;
69280;SDS011;56392;51.082;17.080;2023-07-13T08:20:19;10.27;;;4.20;;
69280;SDS011;56392;51.082;17.080;2023-07-13T08:25:51;11.40;;;4.47;;
69280;SDS011;56392;51.082;17.080;2023-07-13T08:31:15;9.37;;;4.20;;
69280;SDS011;56392;51.082;17.080;2023-07-13T08:36:38;8.68;;;4.10;;
69280;SDS011;56392;51.082;17.080;2023-07-13T08:42:04;10.02;;;4.60;;
69280;SDS011;56392;51.082;17.080;2023-07-13T08:47:30;9.17;;;4.50;;
69280;SDS011;56392;51.082;17.080;2023-07-13T08:52:58;9.47;;;4.90;;
69280;SDS011;56392;51.082;17.080;2023-07-13T08:58:25;9.15;;;4.65;;
69280;SDS011;56392;51.082;17.080;2023-07-13T09:03:54;11.93;;;4.82;;
69280;SDS011;56392;51.082;17.080;2023-07-13T09:09:27;9.30;;;4.40;;
69280;SDS011;56392;51.082;17.080;2023-07-13T09:14:58;9.25;;;4.30;;
69280;SDS011;56392;51.082;17.080;2023-07-13T09:20:26;10.82;;;4.10;;
69280;SDS011;56392;51.082;17.080;2023-07-13T09:25:54;12.47;;;4.07;;
69280;SDS011;56392;51.082;17.080;2023-07-13T09:31:26;9.13;;;3.88;;
69280;SDS011;56392;51.082;17.080;2023-07-13T09:36:55;10.60;;;4.25;;
69280;SDS011;56392;51.082;17.080;2023-07-13T09:42:18;7.82;;;3.95;;
69280;SDS011;56392;51.082;17.080;2023-07-13T09:47:44;10.57;;;3.70;;
69280;SDS011;56392;51.082;17.080;2023-07-13T09:53:13;9.35;;;3.95;;
69280;SDS011;56392;51.082;17.080;2023-07-13T09:58:37;8.05;;;3.55;;
69280;SDS011;56392;51.082;17.080;2023-07-13T10:04:03;6.50;;;3.40;;
69280;SDS011;56392;51.082;17.080;2023-07-13T10:09:34;7.97;;;3.42;;
69280;SDS011;56392;51.082;17.080;2023-07-13T10:15:00;6.22;;;2.90;;
69280;SDS011;56392;51.082;17.080;2023-07-13T10:20:25;6.60;;;2.90;;
69280;SDS011;56392;51.082;17.080;2023-07-13T10:25:49;6.82;;;3.20;;
69280;SDS011;56392;51.082;17.080;2023-07-13T10:31:14;7.28;;;2.97;;
69280;SDS011;56392;51.082;17.080;2023-07-13T10:36:40;9.07;;;2.85;;
69280;SDS011;56392;51.082;17.080;2023-07-13T10:42:06;9.73;;;3.00;;
69280;SDS011;56392;51.082;17.080;2023-07-13T10:47:36;7.72;;;2.60;;
69280;SDS011;56392;51.082;17.080;2023-07-13T10:53:02;6.88;;;2.70;;
69280;SDS011;56392;51.082;17.080;2023-07-13T10:58:42;6.73;;;2.30;;
69280;SDS011;56392;51.082;17.080;2023-07-13T11:04:08;6.55;;;2.70;;
69280;SDS011;56392;51.082;17.080;2023-07-13T11:09:38;5.90;;;2.20;;
69280;SDS011;56392;51.082;17.080;2023-07-13T11:15:07;7.50;;;2.30;;
69280;SDS011;56392;51.082;17.080;2023-07-13T11:20:35;6.82;;;2.25;;
69280;SDS011;56392;51.082;17.080;2023-07-13T11:26:02;7.13;;;2.30;;
69280;SDS011;56392;51.082;17.080;2023-07-13T11:31:25;7.72;;;2.40;;
69280;SDS011;56392;51.082;17.080;2023-07-13T11:36:48;7.70;;;2.27;;
69280;SDS011;56392;51.082;17.080;2023-07-13T11:42:15;6.63;;;2.30;;
69280;SDS011;56392;51.082;17.080;2023-07-13T11:47:42;5.88;;;2.13;;
69280;SDS011;56392;51.082;17.080;2023-07-13T11:53:08;7.33;;;2.77;;
69280;SDS011;56392;51.082;17.080;2023-07-13T11:58:34;9.40;;;2.58;;
69280;SDS011;56392;51.082;17.080;2023-07-13T12:03:57;6.90;;;2.13;;
69280;SDS011;56392;51.082;17.080;2023-07-13T12:09:22;6.00;;;2.20;;
69280;SDS011;56392;51.082;17.080;2023-07-13T12:14:52;8.80;;;2.38;;
69280;SDS011;56392;51.082;17.080;2023-07-13T12:20:20;6.45;;;2.42;;
69280;SDS011;56392;51.082;17.080;2023-07-13T12:25:45;7.72;;;2.80;;
69280;SDS011;56392;51.082;17.080;2023-07-13T12:31:22;8.00;;;2.30;;
69280;SDS011;56392;51.082;17.080;2023-07-13T12:36:48;8.95;;;2.33;;
69280;SDS011;56392;51.082;17.080;2023-07-13T12:42:22;8.55;;;2.40;;
69280;SDS011;56392;51.082;17.080;2023-07-13T12:47:54;7.80;;;2.20;;
69280;SDS011;56392;51.082;17.080;2023-07-13T12:53:21;5.30;;;1.90;;
69280;SDS011;56392;51.082;17.080;2023-07-13T12:58:46;6.05;;;1.80;;
69280;SDS011;56392;51.082;17.080;2023-07-13T13:04:20;8.80;;;2.33;;
69280;SDS011;56392;51.082;17.080;2023-07-13T13:09:44;8.38;;;2.30;;
69280;SDS011;56392;51.082;17.080;2023-07-13T13:15:10;9.02;;;2.17;;
69280;SDS011;56392;51.082;17.080;2023-07-13T13:20:35;7.65;;;2.40;;
69280;SDS011;56392;51.082;17.080;2023-07-13T13:25:58;5.97;;;1.80;;
69280;SDS011;56392;51.082;17.080;2023-07-13T13:31:21;7.55;;;2.00;;
69280;SDS011;56392;51.082;17.080;2023-07-13T13:36:46;7.93;;;2.13;;
69280;SDS011;56392;51.082;17.080;2023-07-13T13:42:10;6.70;;;1.80;;
69280;SDS011;56392;51.082;17.080;2023-07-13T13:47:33;7.22;;;2.08;;
69280;SDS011;56392;51.082;17.080;2023-07-13T13:52:59;6.55;;;2.15;;
69280;SDS011;56392;51.082;17.080;2023-07-13T13:58:23;7.83;;;2.40;;
69280;SDS011;56392;51.082;17.080;2023-07-13T14:03:46;10.27;;;2.20;;
69280;SDS011;56392;51.082;17.080;2023-07-13T14:09:14;7.30;;;2.33;;
69280;SDS011;56392;51.082;17.080;2023-07-13T14:14:41;7.22;;;2.13;;
69280;SDS011;56392;51.082;17.080;2023-07-13T14:20:05;6.40;;;2.20;;
69280;SDS011;56392;51.082;17.080;2023-07-13T14:25:35;6.55;;;2.10;;
69280;SDS011;56392;51.082;17.080;2023-07-13T14:30:59;6.32;;;2.17;;
69280;SDS011;56392;51.082;17.080;2023-07-13T14:36:25;6.63;;;1.90;;
69280;SDS011;56392;51.082;17.080;2023-07-13T14:41:53;5.65;;;2.25;;
69280;SDS011;56392;51.082;17.080;2023-07-13T14:47:17;6.78;;;1.90;;
69280;SDS011;56392;51.082;17.080;2023-07-13T14:52:41;7.20;;;1.90;;
69280;SDS011;56392;51.082;17.080;2023-07-13T14:58:06;5.75;;;1.83;;
69280;SDS011;56392;51.082;17.080;2023-07-13T15:03:29;6.70;;;2.00;;
69280;SDS011;56392;51.082;17.080;2023-07-13T15:08:53;6.50;;;1.90;;
69280;SDS011;56392;51.082;17.080;2023-07-13T15:14:18;5.73;;;1.80;;
69280;SDS011;56392;51.082;17.080;2023-07-13T15:19:41;7.90;;;1.77;;
69280;SDS011;56392;51.082;17.080;2023-07-13T15:25:07;6.78;;;1.80;;
69280;SDS011;56392;51.082;17.080;2023-07-13T15:30:40;7.13;;;1.80;;
69280;SDS011;56392;51.082;17.080;2023-07-13T15:36:04;5.22;;;1.90;;
69280;SDS011;56392;51.082;17.080;2023-07-13T15:41:28;6.35;;;2.00;;
69280;SDS011;56392;51.082;17.080;2023-07-13T15:46:53;6.13;;;1.80;;
69280;SDS011;56392;51.082;17.080;2023-07-13T15:52:17;6.15;;;1.90;;
69280;SDS011;56392;51.082;17.080;2023-07-13T15:57:42;5.68;;;1.80;;
69280;SDS011;56392;51.082;17.080;2023-07-13T16:03:10;6.95;;;2.30;;
69280;SDS011;56392;51.082;17.080;2023-07-13T16:08:36;6.00;;;2.33;;
69280;SDS011;56392;51.082;17.080;2023-07-13T16:14:02;6.57;;;2.40;;
69280;SDS011;56392;51.082;17.080;2023-07-13T16:19:29;6.32;;;2.55;;
69280;SDS011;56392;51.082;17.080;2023-07-13T16:24:55;6.93;;;2.50;;
69280;SDS011;56392;51.082;17.080;2023-07-13T16:30:20;6.03;;;2.50;;
69280;SDS011;56392;51.082;17.080;2023-07-13T16:35:49;7.47;;;2.50;;
69280;SDS011;56392;51.082;17.080;2023-07-13T16:41:14;6.37;;;2.50;;
69280;SDS011;56392;51.082;17.080;2023-07-13T16:46:37;6.93;;;2.38;;
69280;SDS011;56392;51.082;17.080;2023-07-13T16:52:02;6.80;;;2.42;;
69280;SDS011;56392;51.082;17.080;2023-07-13T16:57:31;6.50;;;2.60;;
69280;SDS011;56392;51.082;17.080;2023-07-13T17:02:56;6.43;;;2.23;;
69280;SDS011;56392;51.082;17.080;2023-07-13T17:08:24;7.25;;;2.60;;
69280;SDS011;56392;51.082;17.080;2023-07-13T17:13:50;8.88;;;2.20;;
69280;SDS011;56392;51.082;17.080;2023-07-13T17:19:13;6.53;;;2.50;;
69280;SDS011;56392;51.082;17.080;2023-07-13T17:24:39;6.93;;;2.58;;
69280;SDS011;56392;51.082;17.080;2023-07-13T17:30:06;7.57;;;2.50;;
69280;SDS011;56392;51.082;17.080;2023-07-13T17:35:36;7.57;;;2.73;;
69280;SDS011;56392;51.082;17.080;2023-07-13T17:41:02;6.60;;;2.65;;
69280;SDS011;56392;51.082;17.080;2023-07-13T17:46:27;7.88;;;3.15;;
69280;SDS011;56392;51.082;17.080;2023-07-13T17:51:54;9.17;;;2.80;;
69280;SDS011;56392;51.082;17.080;2023-07-13T17:57:18;6.80;;;2.80;;
69280;SDS011;56392;51.082;17.080;2023-07-13T18:02:41;7.35;;;2.60;;
69280;SDS011;56392;51.082;17.080;2023-07-13T18:08:08;6.88;;;2.58;;
69280;SDS011;56392;51.082;17.080;2023-07-13T18:13:43;6.77;;;2.70;;
69280;SDS011;56392;51.082;17.080;2023-07-13T18:19:15;9.20;;;3.10;;
69280;SDS011;56392;51.082;17.080;2023-07-13T18:24:46;13.38;;;2.90;;
69280;SDS011;56392;51.082;17.080;2023-07-13T18:30:14;8.23;;;2.90;;
69280;SDS011;56392;51.082;17.080;2023-07-13T18:35:38;7.13;;;2.70;;
69280;SDS011;56392;51.082;17.080;2023-07-13T18:41:02;7.00;;;2.72;;
69280;SDS011;56392;51.082;17.080;2023-07-13T18:46:27;8.17;;;2.90;;
69280;SDS011;56392;51.082;17.080;2023-07-13T18:51:53;7.10;;;2.90;;
69280;SDS011;56392;51.082;17.080;2023-07-13T18:57:17;7.07;;;2.63;;
69280;SDS011;56392;51.082;17.080;2023-07-13T19:02:43;8.65;;;3.00;;
69280;SDS011;56392;51.082;17.080;2023-07-13T19:08:08;9.13;;;2.90;;
69280;SDS011;56392;51.082;17.080;2023-07-13T19:13:34;9.55;;;2.85;;
69280;SDS011;56392;51.082;17.080;2023-07-13T19:18:59;8.75;;;2.50;;
69280;SDS011;56392;51.082;17.080;2023-07-13T19:24:24;9.70;;;3.00;;
69280;SDS011;56392;51.082;17.080;2023-07-13T19:29:48;7.88;;;2.78;;
69280;SDS011;56392;51.082;17.080;2023-07-13T19:35:13;5.47;;;2.42;;
69280;SDS011;56392;51.082;17.080;2023-07-13T19:40:36;7.63;;;2.40;;
69280;SDS011;56392;51.082;17.080;2023-07-13T19:45:59;8.47;;;2.90;;
69280;SDS011;56392;51.082;17.080;2023-07-13T19:51:23;7.93;;;3.47;;
69280;SDS011;56392;51.082;17.080;2023-07-13T19:56:47;7.80;;;3.15;;
69280;SDS011;56392;51.082;17.080;2023-07-13T20:02:10;9.10;;;3.00;;
69280;SDS011;56392;51.082;17.080;2023-07-13T20:07:36;6.72;;;3.10;;
69280;SDS011;56392;51.082;17.080;2023-07-13T20:12:59;6.88;;;2.72;;
69280;SDS011;56392;51.082;17.080;2023-07-13T20:18:23;8.17;;;3.20;;
69280;SDS011;56392;51.082;17.080;2023-07-13T20:23:49;8.75;;;2.97;;
69280;SDS011;56392;51.082;17.080;2023-07-13T20:29:12;8.63;;;3.00;;
69280;SDS011;56392;51.082;17.080;2023-07-13T20:34:37;6.47;;;2.80;;
69280;SDS011;56392;51.082;17.080;2023-07-13T20:40:05;5.67;;;2.70;;
69280;SDS011;56392;51.082;17.080;2023-07-13T20:45:37;6.85;;;2.80;;
69280;SDS011;56392;51.082;17.080;2023-07-13T20:51:00;7.60;;;2.90;;
69280;SDS011;56392;51.082;17.080;2023-07-13T20:56:26;6.80;;;2.73;;
69280;SDS011;56392;51.082;17.080;2023-07-13T21:01:50;7.35;;;3.22;;
69280;SDS011;56392;51.082;17.080;2023-07-13T21:07:13;6.75;;;3.03;;
69280;SDS011;56392;51.082;17.080;2023-07-13T21:12:42;8.30;;;3.20;;
69280;SDS011;56392;51.082;17.080;2023-07-13T21:18:13;7.15;;;3.15;;
69280;SDS011;56392;51.082;17.080;2023-07-13T21:23:39;9.38;;;3.13;;
69280;SDS011;56392;51.082;17.080;2023-07-13T21:29:03;7.00;;;3.23;;
69280;SDS011;56392;51.082;17.080;2023-07-13T21:34:27;6.57;;;3.03;;
69280;SDS011;56392;51.082;17.080;2023-07-13T21:39:51;7.07;;;3.47;;
69280;SDS011;56392;51.082;17.080;2023-07-13T21:45:19;9.43;;;3.40;;
69280;SDS011;56392;51.082;17.080;2023-07-13T21:50:44;6.40;;;3.20;;
69280;SDS011;56392;51.082;17.080;2023-07-13T21:56:11;7.95;;;3.40;;
69280;SDS011;56392;51.082;17.080;2023-07-13T22:01:35;6.68;;;3.20;;
69280;SDS011;56392;51.082;17.080;2023-07-13T22:06:58;6.47;;;3.03;;
69280;SDS011;56392;51.082;17.080;2023-07-13T22:12:22;8.05;;;3.78;;
69280;SDS011;56392;51.082;17.080;2023-07-13T22:17:47;6.82;;;3.53;;
69280;SDS011;56392;51.082;17.080;2023-07-13T22:23:16;7.63;;;4.03;;
69280;SDS011;56392;51.082;17.080;2023-07-13T22:28:41;8.50;;;4.13;;
69280;SDS011;56392;51.082;17.080;2023-07-13T22:34:08;9.65;;;4.18;;
69280;SDS011;56392;51.082;17.080;2023-07-13T22:39:34;9.98;;;3.97;;
69280;SDS011;56392;51.082;17.080;2023-07-13T22:44:58;8.23;;;3.77;;
69280;SDS011;56392;51.082;17.080;2023-07-13T22:50:22;9.35;;;3.65;;
69280;SDS011;56392;51.082;17.080;2023-07-13T22:55:45;6.80;;;3.85;;
69280;SDS011;56392;51.082;17.080;2023-07-13T23:01:12;7.43;;;3.83;;
69280;SDS011;56392;51.082;17.080;2023-07-13T23:06:39;8.02;;;4.10;;
69280;SDS011;56392;51.082;17.080;2023-07-13T23:12:02;8.68;;;4.40;;
69280;SDS011;56392;51.082;17.080;2023-07-13T23:17:26;8.47;;;4.00;;
69280;SDS011;56392;51.082;17.080;2023-07-13T23:22:50;8.60;;;4.37;;
69280;SDS011;56392;51.082;17.080;2023-07-13T23:28:13;10.50;;;4.50;;
69280;SDS011;56392;51.082;17.080;2023-07-13T23:33:37;10.95;;;4.75;;
69280;SDS011;56392;51.082;17.080;2023-07-13T23:39:04;10.03;;;5.00;;
69280;SDS011;56392;51.082;17.080;2023-07-13T23:44:28;8.68;;;4.63;;
69280;SDS011;56392;51.082;17.080;2023-07-13T23:49:51;9.27;;;4.80;;
69280;SDS011;56392;51.082;17.080;2023-07-13T23:55:18;8.73;;;4.70;;
